createdAt,value
2022-12-01T00:04:18.049Z,3.52
2022-12-01T00:09:35.450Z,3.45
2022-12-01T00:14:34.284Z,3.26
2022-12-01T00:19:33.293Z,3.10
2022-12-01T00:24:33.511Z,3.19
2022-12-01T00:29:32.240Z,3.22
2022-12-01T00:34:31.116Z,3.28
2022-12-01T00:39:30.050Z,3.28
2022-12-01T00:44:30.385Z,2.93
2022-12-01T00:49:29.286Z,3.05
2022-12-01T00:54:28.198Z,2.94
2022-12-01T00:59:27.878Z,2.86
2022-12-01T01:04:31.169Z,2.77
2022-12-01T01:09:30.016Z,2.79
2022-12-01T01:14:28.775Z,2.90
2022-12-01T01:19:29.047Z,2.87
2022-12-01T01:24:27.822Z,2.71
2022-12-01T01:29:26.651Z,2.81
2022-12-01T01:34:25.583Z,2.77
2022-12-01T01:39:25.729Z,3.08
2022-12-01T01:44:55.564Z,3.00
2022-12-01T01:49:56.290Z,3.25
2022-12-01T01:54:57.026Z,3.40
2022-12-01T01:59:59.736Z,3.16
2022-12-01T02:05:02.940Z,2.92
2022-12-01T02:10:25.509Z,3.19
2022-12-01T02:15:32.157Z,2.94
2022-12-01T02:20:55.498Z,3.08
2022-12-01T02:26:12.069Z,3.20
2022-12-01T02:31:17.292Z,3.01
2022-12-01T02:36:21.212Z,2.78
2022-12-01T02:41:26.467Z,3.01
2022-12-01T02:46:33.781Z,2.92
2022-12-01T02:51:35.628Z,3.03
2022-12-01T02:56:34.485Z,3.09
2022-12-01T03:01:52.712Z,3.08
2022-12-01T03:07:00.671Z,3.15
2022-12-01T03:12:11.519Z,3.39
2022-12-01T03:17:17.024Z,2.91
2022-12-01T03:22:24.946Z,3.19
2022-12-01T03:27:29.787Z,3.36
2022-12-01T03:32:35.048Z,3.34
2022-12-01T03:37:37.804Z,3.15
2022-12-01T03:42:39.170Z,3.19
2022-12-01T03:47:40.633Z,3.35
2022-12-01T03:52:45.691Z,3.39
2022-12-01T03:57:47.860Z,3.38
2022-12-01T04:02:49.095Z,3.43
2022-12-01T04:07:48.026Z,3.32
2022-12-01T04:12:46.804Z,3.37
2022-12-01T04:17:47.235Z,3.43
2022-12-01T04:22:46.066Z,3.46
2022-12-01T04:27:45.250Z,3.47
2022-12-01T04:32:44.912Z,3.54
2022-12-01T04:37:45.106Z,3.50
2022-12-01T04:42:43.962Z,3.49
2022-12-01T04:48:09.633Z,3.26
2022-12-01T04:53:10.137Z,3.39
2022-12-01T04:58:09.088Z,3.13
2022-12-01T05:03:13.541Z,2.93
2022-12-01T05:08:17.401Z,2.93
2022-12-01T05:13:16.838Z,3.14
2022-12-01T05:18:18.892Z,3.02
2022-12-01T05:23:19.730Z,2.75
2022-12-01T05:28:22.452Z,2.73
2022-12-01T05:33:25.255Z,2.90
2022-12-01T05:38:30.234Z,2.81
2022-12-01T05:43:29.844Z,2.96
2022-12-01T05:48:36.097Z,2.94
2022-12-01T05:53:52.854Z,2.70
2022-12-01T05:58:52.707Z,2.78
2022-12-01T06:03:54.235Z,2.71
2022-12-01T06:08:54.607Z,2.67
2022-12-01T06:13:53.652Z,2.59
2022-12-01T06:18:52.445Z,2.69
2022-12-01T06:23:51.306Z,3.06
2022-12-01T06:28:55.184Z,3.12
2022-12-01T06:33:54.063Z,2.79
2022-12-01T06:38:52.826Z,2.61
2022-12-01T06:43:53.447Z,2.29
2022-12-01T06:48:53.987Z,2.14
2022-12-01T06:53:55.319Z,2.36
2022-12-01T06:58:55.589Z,2.38
2022-12-01T07:03:55.018Z,2.29
2022-12-01T07:08:59.958Z,2.23
2022-12-01T07:14:00.464Z,2.38
2022-12-01T07:19:00.103Z,2.25
2022-12-01T07:24:01.605Z,2.10
2022-12-01T07:29:02.470Z,2.06
2022-12-01T07:34:01.885Z,1.92
2022-12-01T07:39:00.881Z,1.74
2022-12-01T07:44:01.065Z,1.95
2022-12-01T07:49:00.639Z,1.63
2022-12-01T07:54:03.653Z,1.57
2022-12-01T07:59:06.547Z,1.55
2022-12-01T08:04:06.173Z,1.66
2022-12-01T08:09:05.242Z,1.77
2022-12-01T08:14:05.767Z,1.82
2022-12-01T08:19:11.107Z,1.93
2022-12-01T08:24:11.953Z,1.81
2022-12-01T08:29:16.997Z,2.19
2022-12-01T08:34:22.430Z,2.29
2022-12-01T08:39:22.213Z,2.31
2022-12-01T08:44:23.078Z,2.49
2022-12-01T08:49:26.662Z,2.59
2022-12-01T08:54:30.235Z,2.42
2022-12-01T08:59:31.032Z,2.16
2022-12-01T09:05:09.266Z,2.23
2022-12-01T09:11:03.292Z,2.13
2022-12-01T09:16:06.245Z,2.09
2022-12-01T09:21:12.504Z,2.20
2022-12-01T09:26:13.760Z,2.26
2022-12-01T09:31:15.630Z,2.35
2022-12-01T09:36:14.993Z,2.44
2022-12-01T09:41:21.459Z,2.60
2022-12-01T09:46:25.826Z,2.70
2022-12-01T09:51:27.346Z,2.72
2022-12-01T09:56:30.302Z,2.75
2022-12-01T10:01:35.783Z,2.95
2022-12-01T10:06:40.110Z,2.87
2022-12-01T10:11:43.689Z,2.81
2022-12-01T10:16:49.614Z,2.71
2022-12-01T10:22:02.261Z,2.90
2022-12-01T10:27:11.220Z,2.84
2022-12-01T10:32:18.805Z,2.73
2022-12-01T10:37:21.544Z,2.89
2022-12-01T10:42:30.486Z,2.66
2022-12-01T10:47:32.170Z,2.76
2022-12-01T10:52:39.115Z,2.74
2022-12-01T10:57:38.059Z,2.72
2022-12-01T11:02:38.651Z,2.79
2022-12-01T11:07:46.394Z,2.93
2022-12-01T11:12:47.996Z,2.60
2022-12-01T11:17:48.984Z,2.57
2022-12-01T11:22:48.218Z,2.79
2022-12-01T11:27:53.080Z,3.06
2022-12-01T11:32:57.336Z,2.98
2022-12-01T11:38:29.147Z,2.84
2022-12-01T11:43:27.497Z,2.58
2022-12-01T11:48:30.635Z,2.74
2022-12-01T11:53:31.197Z,2.97
2022-12-01T11:58:30.099Z,2.91
2022-12-01T12:03:37.366Z,2.96
2022-12-01T12:08:49.578Z,3.22
2022-12-01T12:14:25.740Z,3.21
2022-12-01T12:20:07.240Z,3.26
2022-12-01T12:25:23.045Z,2.98
2022-12-01T12:30:30.132Z,3.11
2022-12-01T12:35:40.928Z,2.96
2022-12-01T12:40:48.749Z,3.29
2022-12-01T12:45:59.527Z,2.71
2022-12-01T12:51:11.466Z,2.88
2022-12-01T12:56:18.554Z,3.07
2022-12-01T13:01:24.250Z,3.28
2022-12-01T13:06:36.661Z,3.21
2022-12-01T13:11:45.971Z,3.20
2022-12-01T13:16:49.313Z,3.17
2022-12-01T13:21:52.045Z,3.15
2022-12-01T13:26:54.335Z,3.17
2022-12-01T13:31:57.059Z,3.10
2022-12-01T13:36:58.241Z,2.67
2022-12-01T13:42:13.384Z,2.91
2022-12-01T13:47:39.333Z,2.87
2022-12-01T13:52:50.996Z,2.80
2022-12-01T13:57:51.896Z,2.48
2022-12-01T14:03:23.633Z,2.67
2022-12-01T14:08:26.537Z,2.58
2022-12-01T14:13:27.110Z,2.70
2022-12-01T14:18:35.555Z,2.98
2022-12-01T14:23:38.667Z,3.01
2022-12-01T14:29:10.513Z,3.12
2022-12-01T14:34:15.727Z,2.98
2022-12-01T14:39:22.817Z,2.78
2022-12-01T14:44:32.310Z,2.81
2022-12-01T14:49:35.403Z,2.74
2022-12-01T14:54:45.074Z,2.70
2022-12-01T14:59:43.848Z,2.70
2022-12-01T15:05:07.663Z,2.84
2022-12-01T15:10:17.833Z,2.89
2022-12-01T15:15:23.628Z,2.90
2022-12-01T15:20:31.126Z,2.84
2022-12-01T15:25:35.724Z,2.65
2022-12-01T15:30:34.684Z,2.61
2022-12-01T15:35:34.046Z,2.70
2022-12-01T15:45:57.170Z,2.75
2022-12-01T15:51:07.328Z,2.94
2022-12-01T15:56:11.542Z,2.67
2022-12-01T16:01:14.807Z,2.60
2022-12-01T16:06:14.681Z,2.79
2022-12-01T16:11:17.893Z,2.70
2022-12-01T16:16:41.066Z,2.71
2022-12-01T16:21:47.693Z,2.81
2022-12-01T16:26:51.989Z,2.89
2022-12-01T16:32:18.760Z,2.79
2022-12-01T16:37:20.952Z,2.87
2022-12-01T16:42:24.234Z,2.83
2022-12-01T16:47:25.580Z,3.13
2022-12-01T16:57:45.243Z,2.66
2022-12-01T17:02:46.583Z,2.61
2022-12-01T17:07:45.929Z,2.41
2022-12-01T17:12:46.338Z,2.42
2022-12-01T17:17:45.920Z,2.26
2022-12-01T17:22:45.231Z,2.33
2022-12-01T17:27:45.953Z,2.37
2022-12-01T17:32:44.893Z,2.51
2022-12-01T17:37:43.974Z,2.47
2022-12-01T17:42:50.043Z,2.44
2022-12-01T17:47:51.448Z,2.63
2022-12-01T17:52:50.398Z,2.71
2022-12-01T17:57:49.416Z,2.75
2022-12-01T18:02:50.700Z,2.73
2022-12-01T18:07:51.043Z,2.88
2022-12-01T18:12:49.972Z,3.10
2022-12-01T18:17:48.850Z,3.12
2022-12-01T18:22:48.144Z,3.18
2022-12-01T18:27:48.320Z,3.02
2022-12-01T18:32:47.116Z,2.79
2022-12-01T18:37:45.995Z,2.71
2022-12-01T18:42:44.869Z,2.87
2022-12-01T18:47:45.337Z,2.87
2022-12-01T18:52:44.196Z,2.86
2022-12-01T18:57:43.231Z,2.92
2022-12-01T19:02:42.253Z,2.74
2022-12-01T19:07:42.531Z,2.64
2022-12-01T19:12:41.714Z,2.97
2022-12-01T19:17:40.642Z,2.75
2022-12-01T19:22:40.020Z,2.74
2022-12-01T19:27:41.272Z,2.67
2022-12-01T19:32:40.531Z,2.86
2022-12-01T19:37:41.372Z,2.84
2022-12-01T19:42:43.312Z,2.68
2022-12-01T19:47:42.252Z,2.74
2022-12-01T19:52:41.906Z,2.69
2022-12-01T19:57:43.243Z,2.79
2022-12-01T20:02:42.135Z,2.66
2022-12-01T20:07:41.378Z,2.78
2022-12-01T20:12:40.243Z,2.72
2022-12-01T20:17:41.147Z,2.52
2022-12-01T20:22:40.417Z,2.59
2022-12-01T20:27:39.819Z,2.60
2022-12-01T20:32:41.639Z,2.76
2022-12-01T20:37:43.348Z,2.57
2022-12-01T20:42:42.158Z,2.75
2022-12-01T20:47:42.400Z,3.04
2022-12-01T20:52:42.139Z,3.21
2022-12-01T20:57:40.977Z,3.37
2022-12-01T21:02:39.980Z,3.31
2022-12-01T21:07:40.483Z,3.24
2022-12-01T21:12:58.645Z,3.02
2022-12-01T21:18:00.455Z,2.86
2022-12-01T21:23:03.569Z,2.85
2022-12-01T21:28:11.791Z,3.04
2022-12-01T21:33:21.574Z,2.88
2022-12-01T21:38:22.350Z,2.55
2022-12-01T21:43:23.090Z,2.69
2022-12-01T21:48:24.209Z,2.65
2022-12-01T21:53:28.316Z,2.53
2022-12-01T21:58:29.789Z,2.67
2022-12-01T22:03:33.993Z,2.81
2022-12-01T22:08:36.948Z,2.83
2022-12-01T22:13:42.034Z,2.66
2022-12-01T22:18:42.394Z,2.94
2022-12-01T22:23:42.584Z,2.90
2022-12-01T22:28:41.525Z,2.98
2022-12-01T22:33:40.644Z,2.93
2022-12-01T22:38:40.224Z,2.86
2022-12-01T22:43:46.731Z,2.83
2022-12-01T22:48:47.996Z,3.08
2022-12-01T22:53:47.724Z,3.11
2022-12-01T22:58:48.362Z,3.20
2022-12-01T23:03:47.235Z,2.96
2022-12-01T23:08:46.105Z,3.08
2022-12-01T23:13:44.989Z,3.10
2022-12-01T23:18:45.286Z,3.39
2022-12-01T23:23:44.072Z,3.50
2022-12-01T23:28:42.861Z,3.46
2022-12-01T23:33:41.728Z,3.37
2022-12-01T23:38:44.470Z,3.14
2022-12-01T23:43:46.078Z,3.25
2022-12-01T23:48:46.976Z,3.21
2022-12-01T23:53:47.736Z,3.10
2022-12-01T23:58:46.798Z,3.17
